sensor_id;sensor_type;location;lat;lon;timestamp;pressure;altitude;pressure_sealevel;temperature;humidity
29461;BME280;16428;47.836;35.106;2022-08-19T00:00:11;100493.16;;;24.24;100.00
29461;BME280;16428;47.836;35.106;2022-08-19T00:02:43;100497.22;;;24.16;100.00
29461;BME280;16428;47.836;35.106;2022-08-19T00:05:18;100514.03;;;24.40;100.00
29461;BME280;16428;47.836;35.106;2022-08-19T00:07:48;100523.91;;;24.77;100.00
29461;BME280;16428;47.836;35.106;2022-08-19T00:10:19;100528.88;;;24.75;100.00
29461;BME280;16428;47.836;35.106;2022-08-19T00:12:48;100525.81;;;24.92;100.00
29461;BME280;16428;47.836;35.106;2022-08-19T00:15:20;100525.56;;;24.78;100.00
29461;BME280;16428;47.836;35.106;2022-08-19T00:17:49;100531.91;;;24.88;100.00
29461;BME280;16428;47.836;35.106;2022-08-19T00:20:21;100537.66;;;24.87;100.00
29461;BME280;16428;47.836;35.106;2022-08-19T00:22:50;100540.41;;;24.77;100.00
29461;BME280;16428;47.836;35.106;2022-08-19T00:25:20;100529.97;;;24.64;100.00
29461;BME280;16428;47.836;35.106;2022-08-19T00:27:58;100524.47;;;24.53;100.00
29461;BME280;16428;47.836;35.106;2022-08-19T00:30:26;100514.78;;;24.10;100.00
29461;BME280;16428;47.836;35.106;2022-08-19T00:32:58;100509.00;;;24.07;100.00
29461;BME280;16428;47.836;35.106;2022-08-19T00:35:26;100504.56;;;23.91;100.00
29461;BME280;16428;47.836;35.106;2022-08-19T00:37:58;100501.03;;;23.95;100.00
29461;BME280;16428;47.836;35.106;2022-08-19T00:40:26;100502.41;;;24.03;100.00
29461;BME280;16428;47.836;35.106;2022-08-19T00:42:55;100507.66;;;24.19;100.00
29461;BME280;16428;47.836;35.106;2022-08-19T00:45:26;100511.53;;;24.34;100.00
29461;BME280;16428;47.836;35.106;2022-08-19T00:47:59;100503.78;;;23.95;100.00
29461;BME280;16428;47.836;35.106;2022-08-19T00:50:43;100506.19;;;23.76;100.00
29461;BME280;16428;47.836;35.106;2022-08-19T00:53:21;100502.41;;;23.98;100.00
29461;BME280;16428;47.836;35.106;2022-08-19T00:55:53;100502.19;;;24.30;100.00
29461;BME280;16428;47.836;35.106;2022-08-19T00:58:26;100505.72;;;24.15;100.00
29461;BME280;16428;47.836;35.106;2022-08-19T01:00:58;100498.38;;;24.36;100.00
29461;BME280;16428;47.836;35.106;2022-08-19T01:03:26;100498.09;;;24.68;100.00
29461;BME280;16428;47.836;35.106;2022-08-19T01:05:57;100499.22;;;24.72;100.00
29461;BME280;16428;47.836;35.106;2022-08-19T01:08:25;100496.44;;;24.77;100.00
29461;BME280;16428;47.836;35.106;2022-08-19T01:11:00;100499.47;;;24.75;100.00
29461;BME280;16428;47.836;35.106;2022-08-19T01:13:31;100503.03;;;24.76;100.00
29461;BME280;16428;47.836;35.106;2022-08-19T01:16:23;100501.41;;;24.90;100.00
29461;BME280;16428;47.836;35.106;2022-08-19T01:18:52;100489.84;;;24.78;100.00
29461;BME280;16428;47.836;35.106;2022-08-19T01:21:46;100500.84;;;24.63;100.00
29461;BME280;16428;47.836;35.106;2022-08-19T01:24:16;100501.41;;;24.49;100.00
29461;BME280;16428;47.836;35.106;2022-08-19T01:26:47;100505.78;;;24.66;100.00
29461;BME280;16428;47.836;35.106;2022-08-19T01:29:15;100509.09;;;24.58;100.00
29461;BME280;16428;47.836;35.106;2022-08-19T01:31:44;100511.28;;;24.35;100.00
29461;BME280;16428;47.836;35.106;2022-08-19T01:34:12;100511.84;;;24.47;100.00
29461;BME280;16428;47.836;35.106;2022-08-19T01:36:43;100508.53;;;24.30;100.00
29461;BME280;16428;47.836;35.106;2022-08-19T01:39:19;100504.59;;;24.01;100.00
29461;BME280;16428;47.836;35.106;2022-08-19T01:41:48;100510.66;;;24.18;100.00
29461;BME280;16428;47.836;35.106;2022-08-19T01:44:19;100512.31;;;24.14;100.00
29461;BME280;16428;47.836;35.106;2022-08-19T01:46:52;100511.22;;;24.15;100.00
29461;BME280;16428;47.836;35.106;2022-08-19T01:49:23;100511.81;;;24.32;100.00
29461;BME280;16428;47.836;35.106;2022-08-19T01:51:53;100506.34;;;24.52;100.00
29461;BME280;16428;47.836;35.106;2022-08-19T01:54:24;100512.38;;;24.49;100.00
29461;BME280;16428;47.836;35.106;2022-08-19T01:57:05;100511.84;;;24.52;100.00
29461;BME280;16428;47.836;35.106;2022-08-19T01:59:36;100514.59;;;24.52;100.00
29461;BME280;16428;47.836;35.106;2022-08-19T02:02:05;100509.03;;;24.22;100.00
29461;BME280;16428;47.836;35.106;2022-08-19T02:04:39;100509.00;;;23.97;100.00
29461;BME280;16428;47.836;35.106;2022-08-19T02:07:07;100500.16;;;23.79;100.00
29461;BME280;16428;47.836;35.106;2022-08-19T02:09:36;100505.72;;;24.05;100.00
29461;BME280;16428;47.836;35.106;2022-08-19T02:12:06;100501.84;;;23.96;100.00
29461;BME280;16428;47.836;35.106;2022-08-19T02:14:36;100507.91;;;24.08;100.00
29461;BME280;16428;47.836;35.106;2022-08-19T02:17:05;100507.16;;;24.33;100.00
29461;BME280;16428;47.836;35.106;2022-08-19T02:19:33;100509.56;;;24.19;100.00
29461;BME280;16428;47.836;35.106;2022-08-19T02:22:07;100507.34;;;24.06;100.00
29461;BME280;16428;47.836;35.106;2022-08-19T02:24:35;100512.91;;;24.31;100.00
29461;BME280;16428;47.836;35.106;2022-08-19T02:27:04;100523.38;;;24.39;100.00
29461;BME280;16428;47.836;35.106;2022-08-19T02:29:34;100525.81;;;24.31;100.00
29461;BME280;16428;47.836;35.106;2022-08-19T02:32:03;100520.50;;;23.99;100.00
29461;BME280;16428;47.836;35.106;2022-08-19T02:34:33;100521.59;;;23.93;100.00
29461;BME280;16428;47.836;35.106;2022-08-19T02:37:01;100511.72;;;24.02;100.00
29461;BME280;16428;47.836;35.106;2022-08-19T02:39:31;100509.00;;;24.07;100.00
29461;BME280;16428;47.836;35.106;2022-08-19T02:41:59;100509.00;;;24.02;100.00
29461;BME280;16428;47.836;35.106;2022-08-19T02:44:28;100513.88;;;23.84;100.00
29461;BME280;16428;47.836;35.106;2022-08-19T02:46:58;100503.22;;;23.93;100.00
29461;BME280;16428;47.836;35.106;2022-08-19T02:49:28;100504.84;;;23.99;100.00
29461;BME280;16428;47.836;35.106;2022-08-19T02:52:02;100504.34;;;24.07;100.00
29461;BME280;16428;47.836;35.106;2022-08-19T02:54:32;100504.03;;;23.89;100.00
29461;BME280;16428;47.836;35.106;2022-08-19T02:57:04;100509.00;;;23.97;100.00
29461;BME280;16428;47.836;35.106;2022-08-19T02:59:33;100519.41;;;24.00;100.00
29461;BME280;16428;47.836;35.106;2022-08-19T03:02:03;100516.16;;;24.18;100.00
29461;BME280;16428;47.836;35.106;2022-08-19T03:04:33;100515.94;;;24.30;100.00
29461;BME280;16428;47.836;35.106;2022-08-19T03:07:01;100511.22;;;24.10;100.00
29461;BME280;16428;47.836;35.106;2022-08-19T03:09:37;100525.00;;;24.35;100.00
29461;BME280;16428;47.836;35.106;2022-08-19T03:12:06;100519.25;;;24.27;100.00
29461;BME280;16428;47.836;35.106;2022-08-19T03:14:36;100523.53;;;24.02;100.00
29461;BME280;16428;47.836;35.106;2022-08-19T03:17:06;100528.78;;;24.09;100.00
29461;BME280;16428;47.836;35.106;2022-08-19T03:19:34;100528.25;;;24.12;100.00
29461;BME280;16428;47.836;35.106;2022-08-19T03:22:04;100536.38;;;23.81;100.00
29461;BME280;16428;47.836;35.106;2022-08-19T03:24:35;100534.78;;;23.96;100.00
29461;BME280;16428;47.836;35.106;2022-08-19T03:27:03;100533.72;;;24.07;100.00
29461;BME280;16428;47.836;35.106;2022-08-19T03:29:36;100538.03;;;23.88;100.00
29461;BME280;16428;47.836;35.106;2022-08-19T03:32:10;100529.75;;;23.72;100.00
29461;BME280;16428;47.836;35.106;2022-08-19T03:34:59;100529.69;;;23.57;100.00
29461;BME280;16428;47.836;35.106;2022-08-19T03:37:29;100536.56;;;23.60;100.00
29461;BME280;16428;47.836;35.106;2022-08-19T03:39:59;100548.13;;;23.72;100.00
29461;BME280;16428;47.836;35.106;2022-08-19T03:42:28;100544.97;;;24.15;100.00
29461;BME280;16428;47.836;35.106;2022-08-19T03:45:18;100561.78;;;24.44;100.00
29461;BME280;16428;47.836;35.106;2022-08-19T03:47:47;100568.41;;;24.53;100.00
29461;BME280;16428;47.836;35.106;2022-08-19T03:50:17;100571.72;;;24.66;100.00
29461;BME280;16428;47.836;35.106;2022-08-19T03:52:51;100568.91;;;24.30;100.00
29461;BME280;16428;47.836;35.106;2022-08-19T03:55:20;100558.38;;;23.97;100.00
29461;BME280;16428;47.836;35.106;2022-08-19T03:57:48;100557.84;;;24.05;100.00
29461;BME280;16428;47.836;35.106;2022-08-19T04:00:17;100558.38;;;23.97;100.00
29461;BME280;16428;47.836;35.106;2022-08-19T04:02:45;100560.06;;;24.13;100.00
29461;BME280;16428;47.836;35.106;2022-08-19T04:05:28;100562.56;;;24.19;100.00
29461;BME280;16428;47.836;35.106;2022-08-19T04:07:58;100558.41;;;24.17;100.00
29461;BME280;16428;47.836;35.106;2022-08-19T04:10:28;100566.13;;;24.20;100.00
29461;BME280;16428;47.836;35.106;2022-08-19T04:12:58;100572.69;;;24.19;100.00
29461;BME280;16428;47.836;35.106;2022-08-19T04:15:28;100560.59;;;24.15;100.00
29461;BME280;16428;47.836;35.106;2022-08-19T04:18:04;100560.88;;;24.08;100.00
29461;BME280;16428;47.836;35.106;2022-08-19T04:20:44;100566.06;;;23.95;100.00
29461;BME280;16428;47.836;35.106;2022-08-19T04:23:14;100558.59;;;23.80;100.00
29461;BME280;16428;47.836;35.106;2022-08-19T04:25:44;100558.00;;;23.73;100.00
29461;BME280;16428;47.836;35.106;2022-08-19T04:28:12;100555.53;;;23.71;100.00
29461;BME280;16428;47.836;35.106;2022-08-19T04:30:45;100560.50;;;23.79;100.00
29461;BME280;16428;47.836;35.106;2022-08-19T04:33:17;100559.94;;;23.77;100.00
29461;BME280;16428;47.836;35.106;2022-08-19T04:35:55;100570.94;;;23.88;100.00
29461;BME280;16428;47.836;35.106;2022-08-19T04:38:26;100568.41;;;23.66;100.00
29461;BME280;16428;47.836;35.106;2022-08-19T04:40:55;100579.09;;;23.72;100.00
29461;BME280;16428;47.836;35.106;2022-08-19T04:43:44;100576.38;;;23.67;100.00
29461;BME280;16428;47.836;35.106;2022-08-19T04:46:16;100578.81;;;23.69;100.00
29461;BME280;16428;47.836;35.106;2022-08-19T04:49:07;100577.53;;;23.81;100.00
29461;BME280;16428;47.836;35.106;2022-08-19T04:51:42;100581.91;;;23.88;100.00
29461;BME280;16428;47.836;35.106;2022-08-19T04:54:13;100589.84;;;23.79;100.00
29461;BME280;16428;47.836;35.106;2022-08-19T04:57:02;100583.03;;;23.92;100.00
29461;BME280;16428;47.836;35.106;2022-08-19T04:59:35;100585.88;;;24.17;100.00
29461;BME280;16428;47.836;35.106;2022-08-19T05:02:04;100583.41;;;24.20;100.00
29461;BME280;16428;47.836;35.106;2022-08-19T05:04:34;100585.00;;;23.96;100.00
29461;BME280;16428;47.836;35.106;2022-08-19T05:07:08;100584.19;;;24.06;100.00
29461;BME280;16428;47.836;35.106;2022-08-19T05:09:37;100588.59;;;24.17;100.00
29461;BME280;16428;47.836;35.106;2022-08-19T05:12:25;100592.44;;;24.11;100.00
29461;BME280;16428;47.836;35.106;2022-08-19T05:14:57;100585.81;;;23.97;100.00
29461;BME280;16428;47.836;35.106;2022-08-19T05:17:27;100589.69;;;24.16;100.00
29461;BME280;16428;47.836;35.106;2022-08-19T05:20:05;100589.22;;;24.29;100.00
29461;BME280;16428;47.836;35.106;2022-08-19T05:23:10;100589.78;;;24.36;100.00
29461;BME280;16428;47.836;35.106;2022-08-19T05:25:49;100584.84;;;24.28;100.00
29461;BME280;16428;47.836;35.106;2022-08-19T05:28:19;100579.88;;;24.30;100.00
29461;BME280;16428;47.836;35.106;2022-08-19T05:30:48;100586.50;;;24.34;100.00
29461;BME280;16428;47.836;35.106;2022-08-19T05:33:19;100595.91;;;24.59;100.00
29461;BME280;16428;47.836;35.106;2022-08-19T05:35:48;100589.56;;;24.68;100.00
29461;BME280;16428;47.836;35.106;2022-08-19T05:38:19;100590.41;;;24.84;100.00
29461;BME280;16428;47.836;35.106;2022-08-19T05:40:47;100593.16;;;24.79;100.00
29461;BME280;16428;47.836;35.106;2022-08-19T05:43:17;100591.50;;;24.83;100.00
29461;BME280;16428;47.836;35.106;2022-08-19T05:45:45;100597.81;;;24.78;100.00
29461;BME280;16428;47.836;35.106;2022-08-19T05:48:14;100587.66;;;24.69;100.00
29461;BME280;16428;47.836;35.106;2022-08-19T05:50:46;100587.91;;;24.62;100.00
29461;BME280;16428;47.836;35.106;2022-08-19T05:53:14;100593.16;;;24.59;100.00
29461;BME280;16428;47.836;35.106;2022-08-19T05:55:44;100606.31;;;24.67;100.00
29461;BME280;16428;47.836;35.106;2022-08-19T05:58:12;100599.19;;;24.56;100.00
29461;BME280;16428;47.836;35.106;2022-08-19T06:00:43;100612.38;;;24.69;100.00
29461;BME280;16428;47.836;35.106;2022-08-19T06:03:13;100606.63;;;24.80;100.00
29461;BME280;16428;47.836;35.106;2022-08-19T06:05:41;100611.28;;;24.85;100.00
29461;BME280;16428;47.836;35.106;2022-08-19T06:08:31;100615.72;;;24.96;100.00
29461;BME280;16428;47.836;35.106;2022-08-19T06:11:37;100621.19;;;25.06;100.00
29461;BME280;16428;47.836;35.106;2022-08-19T06:14:09;100622.31;;;25.20;100.00
29461;BME280;16428;47.836;35.106;2022-08-19T06:16:44;100613.75;;;25.37;100.00
29461;BME280;16428;47.836;35.106;2022-08-19T06:19:16;100618.97;;;25.39;100.00
29461;BME280;16428;47.836;35.106;2022-08-19T06:21:47;100613.47;;;25.49;100.00
29461;BME280;16428;47.836;35.106;2022-08-19T06:24:22;100620.88;;;25.58;100.00
29461;BME280;16428;47.836;35.106;2022-08-19T06:26:53;100620.88;;;25.69;100.00
29461;BME280;16428;47.836;35.106;2022-08-19T06:29:29;100622.78;;;25.78;100.00
29461;BME280;16428;47.836;35.106;2022-08-19T06:31:59;100621.38;;;25.91;100.00
29461;BME280;16428;47.836;35.106;2022-08-19T06:34:29;100632.06;;;25.98;100.00
29461;BME280;16428;47.836;35.106;2022-08-19T06:37:00;100634.25;;;26.06;99.15
29461;BME280;16428;47.836;35.106;2022-08-19T06:39:33;100635.84;;;26.17;96.56
29461;BME280;16428;47.836;35.106;2022-08-19T06:42:04;100635.81;;;26.27;96.58
29461;BME280;16428;47.836;35.106;2022-08-19T06:44:39;100645.16;;;26.36;93.64
29461;BME280;16428;47.836;35.106;2022-08-19T06:47:13;100639.84;;;26.45;93.46
29461;BME280;16428;47.836;35.106;2022-08-19T06:49:56;100635.69;;;26.52;94.50
29461;BME280;16428;47.836;35.106;2022-08-19T06:52:32;100634.22;;;26.65;94.23
29461;BME280;16428;47.836;35.106;2022-08-19T06:55:05;100638.78;;;26.85;92.14
29461;BME280;16428;47.836;35.106;2022-08-19T06:57:35;100639.75;;;27.04;90.54
29461;BME280;16428;47.836;35.106;2022-08-19T07:00:05;100646.50;;;27.22;87.58
29461;BME280;16428;47.836;35.106;2022-08-19T07:02:43;100640.66;;;27.28;86.85
29461;BME280;16428;47.836;35.106;2022-08-19T07:05:22;100647.72;;;27.40;84.21
29461;BME280;16428;47.836;35.106;2022-08-19T07:07:52;100644.56;;;27.51;84.86
29461;BME280;16428;47.836;35.106;2022-08-19T07:10:28;100652.25;;;27.59;84.81
29461;BME280;16428;47.836;35.106;2022-08-19T07:12:59;100649.09;;;27.71;82.92
29461;BME280;16428;47.836;35.106;2022-08-19T07:15:29;100650.59;;;27.82;81.04
29461;BME280;16428;47.836;35.106;2022-08-19T07:17:59;100642.75;;;27.94;80.10
29461;BME280;16428;47.836;35.106;2022-08-19T07:20:27;100645.53;;;27.94;78.72
29461;BME280;16428;47.836;35.106;2022-08-19T07:22:58;100647.97;;;27.96;80.74
29461;BME280;16428;47.836;35.106;2022-08-19T07:25:28;100649.81;;;28.06;81.49
29461;BME280;16428;47.836;35.106;2022-08-19T07:27:59;100652.41;;;28.21;80.15
29461;BME280;16428;47.836;35.106;2022-08-19T07:30:30;100643.03;;;28.17;80.92
29461;BME280;16428;47.836;35.106;2022-08-19T07:33:01;100644.94;;;28.21;78.66
29461;BME280;16428;47.836;35.106;2022-08-19T07:35:31;100654.97;;;28.36;79.27
29461;BME280;16428;47.836;35.106;2022-08-19T07:38:06;100649.00;;;28.48;79.63
29461;BME280;16428;47.836;35.106;2022-08-19T07:40:35;100655.28;;;28.53;82.46
29461;BME280;16428;47.836;35.106;2022-08-19T07:43:04;100646.31;;;28.61;80.82
29461;BME280;16428;47.836;35.106;2022-08-19T07:45:33;100649.44;;;28.74;77.97
29461;BME280;16428;47.836;35.106;2022-08-19T07:48:02;100647.06;;;28.67;78.11
29461;BME280;16428;47.836;35.106;2022-08-19T07:50:34;100648.78;;;28.63;78.17
29461;BME280;16428;47.836;35.106;2022-08-19T07:53:02;100643.91;;;28.74;77.60
29461;BME280;16428;47.836;35.106;2022-08-19T07:55:30;100643.63;;;28.75;79.81
29461;BME280;16428;47.836;35.106;2022-08-19T07:58:13;100639.69;;;28.81;78.34
29461;BME280;16428;47.836;35.106;2022-08-19T08:00:45;100637.28;;;28.93;81.54
29461;BME280;16428;47.836;35.106;2022-08-19T08:03:18;100636.91;;;29.00;76.72
29461;BME280;16428;47.836;35.106;2022-08-19T08:05:47;100639.69;;;29.00;79.46
29461;BME280;16428;47.836;35.106;2022-08-19T08:08:36;100640.88;;;29.26;77.34
29461;BME280;16428;47.836;35.106;2022-08-19T08:11:18;100630.44;;;29.37;72.28
29461;BME280;16428;47.836;35.106;2022-08-19T08:13:48;100636.84;;;29.51;74.35
29461;BME280;16428;47.836;35.106;2022-08-19T08:16:28;100637.59;;;29.57;72.41
29461;BME280;16428;47.836;35.106;2022-08-19T08:19:06;100632.97;;;29.80;74.44
29461;BME280;16428;47.836;35.106;2022-08-19T08:21:55;100641.22;;;29.98;71.41
29461;BME280;16428;47.836;35.106;2022-08-19T08:24:26;100637.13;;;30.10;66.92
29461;BME280;16428;47.836;35.106;2022-08-19T08:26:57;100639.59;;;30.25;66.28
29461;BME280;16428;47.836;35.106;2022-08-19T08:29:28;100635.69;;;30.12;67.90
29461;BME280;16428;47.836;35.106;2022-08-19T08:32:03;100629.28;;;30.39;68.51
29461;BME280;16428;47.836;35.106;2022-08-19T08:34:42;100630.28;;;30.57;66.59
29461;BME280;16428;47.836;35.106;2022-08-19T08:37:15;100634.91;;;30.61;66.34
29461;BME280;16428;47.836;35.106;2022-08-19T08:39:43;100646.91;;;30.70;66.40
29461;BME280;16428;47.836;35.106;2022-08-19T08:42:29;100639.81;;;30.87;67.06
29461;BME280;16428;47.836;35.106;2022-08-19T08:45:12;100640.16;;;31.07;65.51
29461;BME280;16428;47.836;35.106;2022-08-19T08:47:48;100650.66;;;31.10;64.15
29461;BME280;16428;47.836;35.106;2022-08-19T08:50:29;100648.16;;;31.09;64.53
29461;BME280;16428;47.836;35.106;2022-08-19T08:53:06;100642.63;;;31.09;66.01
29461;BME280;16428;47.836;35.106;2022-08-19T08:55:40;100635.84;;;31.15;64.62
29461;BME280;16428;47.836;35.106;2022-08-19T08:58:13;100633.09;;;31.01;65.76
29461;BME280;16428;47.836;35.106;2022-08-19T09:00:46;100632.75;;;31.17;66.24
29461;BME280;16428;47.836;35.106;2022-08-19T09:03:28;100639.88;;;31.31;65.15
29461;BME280;16428;47.836;35.106;2022-08-19T09:06:07;100633.84;;;31.38;65.27
29461;BME280;16428;47.836;35.106;2022-08-19T09:09:10;100636.84;;;31.50;66.83
29461;BME280;16428;47.836;35.106;2022-08-19T09:12:11;100636.84;;;31.81;64.92
29461;BME280;16428;47.836;35.106;2022-08-19T09:14:57;100632.94;;;31.82;62.08
29461;BME280;16428;47.836;35.106;2022-08-19T09:17:29;100638.38;;;31.87;63.29
29461;BME280;16428;47.836;35.106;2022-08-19T09:22:41;100635.41;;;32.32;61.76
29461;BME280;16428;47.836;35.106;2022-08-19T09:25:15;100631.41;;;32.15;61.23
29461;BME280;16428;47.836;35.106;2022-08-19T09:27:54;100634.53;;;32.14;61.24
29461;BME280;16428;47.836;35.106;2022-08-19T09:30:40;100631.72;;;32.05;61.09
29461;BME280;16428;47.836;35.106;2022-08-19T09:33:08;100627.81;;;32.06;59.82
29461;BME280;16428;47.836;35.106;2022-08-19T09:35:37;100629.50;;;32.25;60.38
29461;BME280;16428;47.836;35.106;2022-08-19T09:38:21;100632.66;;;32.58;62.28
29461;BME280;16428;47.836;35.106;2022-08-19T09:40:50;100631.50;;;32.50;60.01
29461;BME280;16428;47.836;35.106;2022-08-19T09:43:18;100625.66;;;32.77;59.53
29461;BME280;16428;47.836;35.106;2022-08-19T09:46:01;100627.91;;;33.10;60.51
29461;BME280;16428;47.836;35.106;2022-08-19T09:48:31;100628.25;;;33.08;60.64
29461;BME280;16428;47.836;35.106;2022-08-19T09:51:05;100627.78;;;32.98;60.99
29461;BME280;16428;47.836;35.106;2022-08-19T09:53:39;100631.84;;;33.09;60.79
29461;BME280;16428;47.836;35.106;2022-08-19T09:56:08;100628.91;;;33.14;59.25
29461;BME280;16428;47.836;35.106;2022-08-19T09:58:38;100626.78;;;33.02;57.10
29461;BME280;16428;47.836;35.106;2022-08-19T10:01:07;100639.50;;;33.20;58.66
29461;BME280;16428;47.836;35.106;2022-08-19T10:03:37;100626.13;;;33.14;57.62
29461;BME280;16428;47.836;35.106;2022-08-19T10:06:05;100630.47;;;33.49;59.58
29461;BME280;16428;47.836;35.106;2022-08-19T10:08:45;100632.75;;;33.47;56.38
29461;BME280;16428;47.836;35.106;2022-08-19T10:11:19;100630.22;;;33.72;55.67
29461;BME280;16428;47.836;35.106;2022-08-19T10:14:04;100631.53;;;33.74;55.52
29461;BME280;16428;47.836;35.106;2022-08-19T10:16:36;100635.13;;;33.75;53.32
29461;BME280;16428;47.836;35.106;2022-08-19T10:19:07;100633.34;;;34.08;52.98
29461;BME280;16428;47.836;35.106;2022-08-19T10:21:53;100622.31;;;33.91;50.48
29461;BME280;16428;47.836;35.106;2022-08-19T10:24:28;100622.88;;;34.35;53.04
29461;BME280;16428;47.836;35.106;2022-08-19T10:26:56;100620.84;;;34.65;51.79
29461;BME280;16428;47.836;35.106;2022-08-19T10:29:27;100614.50;;;34.76;53.10
29461;BME280;16428;47.836;35.106;2022-08-19T10:32:02;100613.78;;;34.67;52.71
29461;BME280;16428;47.836;35.106;2022-08-19T10:34:30;100622.75;;;33.93;54.21
29461;BME280;16428;47.836;35.106;2022-08-19T10:37:04;100619.34;;;34.46;52.17
29461;BME280;16428;47.836;35.106;2022-08-19T10:39:41;100631.34;;;34.68;51.83
29461;BME280;16428;47.836;35.106;2022-08-19T10:42:13;100620.22;;;35.01;52.36
29461;BME280;16428;47.836;35.106;2022-08-19T10:44:45;100624.63;;;35.02;50.28
29461;BME280;16428;47.836;35.106;2022-08-19T10:47:15;100617.81;;;35.11;47.01
29461;BME280;16428;47.836;35.106;2022-08-19T10:49:54;100618.72;;;34.41;49.22
29461;BME280;16428;47.836;35.106;2022-08-19T10:52:46;100611.41;;;35.11;49.72
29461;BME280;16428;47.836;35.106;2022-08-19T10:55:19;100614.03;;;34.74;49.64
29461;BME280;16428;47.836;35.106;2022-08-19T10:58:13;100614.59;;;34.88;50.51
29461;BME280;16428;47.836;35.106;2022-08-19T11:00:41;100610.28;;;34.70;50.69
29461;BME280;16428;47.836;35.106;2022-08-19T11:03:12;100607.91;;;34.10;51.68
29461;BME280;16428;47.836;35.106;2022-08-19T11:05:41;100610.84;;;33.84;53.60
29461;BME280;16428;47.836;35.106;2022-08-19T11:08:10;100605.06;;;34.48;52.60
29461;BME280;16428;47.836;35.106;2022-08-19T11:10:52;100598.63;;;34.27;50.13
29461;BME280;16428;47.836;35.106;2022-08-19T11:13:23;100607.88;;;34.18;50.89
29461;BME280;16428;47.836;35.106;2022-08-19T11:16:09;100607.22;;;34.21;51.75
29461;BME280;16428;47.836;35.106;2022-08-19T11:18:48;100607.59;;;33.82;51.72
29461;BME280;16428;47.836;35.106;2022-08-19T11:21:27;100614.88;;;33.95;52.35
29461;BME280;16428;47.836;35.106;2022-08-19T11:23:58;100598.47;;;34.23;52.69
29461;BME280;16428;47.836;35.106;2022-08-19T11:26:28;100600.78;;;34.00;52.00
29461;BME280;16428;47.836;35.106;2022-08-19T11:28:59;100595.91;;;34.18;52.10
29461;BME280;16428;47.836;35.106;2022-08-19T11:31:34;100590.47;;;34.21;52.12
29461;BME280;16428;47.836;35.106;2022-08-19T11:34:08;100600.69;;;34.09;54.30
29461;BME280;16428;47.836;35.106;2022-08-19T11:36:40;100593.72;;;34.03;52.27
29461;BME280;16428;47.836;35.106;2022-08-19T11:39:12;100585.34;;;34.23;52.68
29461;BME280;16428;47.836;35.106;2022-08-19T11:41:41;100588.75;;;34.08;52.30
29461;BME280;16428;47.836;35.106;2022-08-19T11:44:11;100587.13;;;34.37;52.53
29461;BME280;16428;47.836;35.106;2022-08-19T11:46:42;100564.88;;;34.49;54.34
29461;BME280;16428;47.836;35.106;2022-08-19T11:49:17;100569.38;;;34.74;51.36
29461;BME280;16428;47.836;35.106;2022-08-19T11:51:47;100559.50;;;34.98;50.12
29461;BME280;16428;47.836;35.106;2022-08-19T11:54:18;100555.63;;;34.69;49.04
29461;BME280;16428;47.836;35.106;2022-08-19T11:56:46;100549.00;;;34.82;47.97
29461;BME280;16428;47.836;35.106;2022-08-19T11:59:17;100553.63;;;34.78;47.79
29461;BME280;16428;47.836;35.106;2022-08-19T12:01:45;100543.84;;;34.51;50.21
29461;BME280;16428;47.836;35.106;2022-08-19T12:04:15;100548.53;;;34.80;50.07
29461;BME280;16428;47.836;35.106;2022-08-19T12:07:11;100542.19;;;35.04;49.43
29461;BME280;16428;47.836;35.106;2022-08-19T12:09:41;100547.59;;;35.34;49.15
29461;BME280;16428;47.836;35.106;2022-08-19T12:12:12;100540.00;;;35.22;49.82
29461;BME280;16428;47.836;35.106;2022-08-19T12:14:40;100548.47;;;35.58;48.23
29461;BME280;16428;47.836;35.106;2022-08-19T12:17:08;100541.13;;;35.54;48.00
29461;BME280;16428;47.836;35.106;2022-08-19T12:19:37;100533.53;;;35.91;46.94
29461;BME280;16428;47.836;35.106;2022-08-19T12:22:07;100547.88;;;35.89;48.37
29461;BME280;16428;47.836;35.106;2022-08-19T12:24:37;100539.78;;;36.12;46.46
29461;BME280;16428;47.836;35.106;2022-08-19T12:27:05;100546.19;;;36.65;46.85
29461;BME280;16428;47.836;35.106;2022-08-19T12:29:41;100539.31;;;36.90;44.64
29461;BME280;16428;47.836;35.106;2022-08-19T12:32:09;100540.16;;;37.07;43.63
29461;BME280;16428;47.836;35.106;2022-08-19T12:34:46;100546.59;;;37.86;42.25
29461;BME280;16428;47.836;35.106;2022-08-19T12:37:14;100539.41;;;38.04;41.20
29461;BME280;16428;47.836;35.106;2022-08-19T12:39:43;100547.38;;;38.02;40.33
29461;BME280;16428;47.836;35.106;2022-08-19T12:42:13;100551.69;;;38.15;39.26
29461;BME280;16428;47.836;35.106;2022-08-19T12:44:42;100543.59;;;38.68;39.20
29461;BME280;16428;47.836;35.106;2022-08-19T12:47:13;100543.66;;;38.91;38.30
29461;BME280;16428;47.836;35.106;2022-08-19T12:49:45;100542.84;;;38.90;36.88
29461;BME280;16428;47.836;35.106;2022-08-19T12:52:26;100532.63;;;39.01;37.58
29461;BME280;16428;47.836;35.106;2022-08-19T12:54:57;100542.56;;;38.57;37.06
29461;BME280;16428;47.836;35.106;2022-08-19T12:57:30;100525.91;;;38.87;37.26
29461;BME280;16428;47.836;35.106;2022-08-19T13:00:13;100527.06;;;39.28;36.06
29461;BME280;16428;47.836;35.106;2022-08-19T13:02:46;100528.28;;;38.85;36.58
29461;BME280;16428;47.836;35.106;2022-08-19T13:05:24;100523.41;;;38.82;37.06
29461;BME280;16428;47.836;35.106;2022-08-19T13:07:57;100528.81;;;38.71;37.88